Flight Track Log - Related Links

Times and Time Zones

All times are in EDT time to prevent confusion due to time zone crossing. See the SWG39 flight status page for this flight to view local times or setup timezone preferences in your user account.

Time Position Orientation Groundspeed Altitude Reporting Facility
EDT Latitude Longitude Course Direction KTS MPH feet Rate Location/Type
Wed 02:37:47 PM 27.9333 -82.7000 24° Northeast 167 192 900  Level Tampa TRACON
Wed 02:39:06 PM 28.0000 -82.6667 24° Northeast 220 253 3,100 2,247 Climbing Tampa TRACON
Wed 02:41:34 PM 28.1642 -82.6311 11° North 259 298 9,400 2,308 Climbing Jacksonville Center
Wed 02:42:34 PM 28.2478 -82.6311 360° North 269 310 11,100 1,800 Climbing Jacksonville Center
Wed 02:43:34 PM 28.3458 -82.6308 360° North 308 354 13,000 2,000 Climbing Jacksonville Center
Wed 02:44:34 PM 28.4503 -82.6375 357° North 346 398 15,100 2,200 Climbing Jacksonville Center
Wed 02:45:34 PM 28.5586 -82.6397 359° North 374 430 17,400 2,000 Climbing Jacksonville Center
Wed 02:46:34 PM 28.6714 -82.6394 360° North 388 447 19,100 1,850 Climbing Jacksonville Center
Wed 02:47:34 PM 28.7944 -82.6439 358° North 393 452 21,100 1,900 Climbing Jacksonville Center
Wed 02:48:34 PM 28.9136 -82.6458 359° North 406 467 22,900 1,750 Climbing Jacksonville Center
Wed 02:49:34 PM 29.0325 -82.6481 359° North 419 482 24,600 1,650 Climbing Jacksonville Center
Wed 02:50:34 PM 29.1514 -82.6525 358° North 424 488 26,200 1,300 Climbing Jacksonville Center
Wed 02:51:34 PM 29.2725 -82.6569 358° North 419 482 27,200 800 Climbing Jacksonville Center
Wed 02:52:34 PM 29.3936 -82.6589 359° North 425 489 27,800 400 Climbing Jacksonville Center
Wed 02:53:34 PM 29.5083 -82.6636 358° North 436 502 28,000 400 Climbing Jacksonville Center
Wed 02:54:34 PM 29.6294 -82.6681 358° North 442 509 28,600 1,000 Climbing Jacksonville Center
Wed 02:55:34 PM 29.7506 -82.6700 359° North 442 509 30,000 1,550 Climbing Jacksonville Center
Wed 02:56:34 PM 29.8697 -82.6747 358° North 437 503 31,700 1,400 Climbing Jacksonville Center
Wed 02:57:34 PM 29.9886 -82.6767 359° North 432 497 32,800 1,000 Climbing Jacksonville Center
Wed 02:58:34 PM 30.1036 -82.6742 North 418 481 33,700 750 Climbing Jacksonville Center
Wed 02:59:34 PM 30.2203 -82.6761 359° North 418 481 34,300 550 Climbing Jacksonville Center
Wed 03:00:34 PM 30.3372 -82.6808 358° North 418 481 34,800 350 Climbing Jacksonville Center
Wed 03:01:34 PM 30.4522 -82.6831 359° North 418 481 35,000 100 Climbing Jacksonville Center
Wed 03:02:34 PM 30.5689 -82.6297 21° North 428 493 35,000  Level Jacksonville Center
Wed 03:03:34 PM 30.6711 -82.5183 43° Northeast 449 517 35,000  Level Jacksonville Center
Wed 03:04:34 PM 30.7731 -82.4067 43° Northeast 472 543 35,000  Level Jacksonville Center
Wed 03:05:34 PM 30.8728 -82.2947 44° Northeast 488 562 35,000  Level Jacksonville Center
Wed 03:06:34 PM 30.9744 -82.1875 42° Northeast 493 567 35,000  Level Jacksonville Center
Wed 03:07:34 PM 31.0719 -82.0775 44° Northeast 487 560 35,000  Level Jacksonville Center
Wed 03:08:34 PM 31.1736 -81.9700 42° Northeast 487 560 35,000  Level Jacksonville Center
Wed 03:09:34 PM 31.2750 -81.8594 43° Northeast 487 560 35,000  Level Jacksonville Center
Wed 03:10:34 PM 31.3742 -81.7489 44° Northeast 487 560 35,000  Level Jacksonville Center
Wed 03:11:34 PM 31.4858 -81.6281 43° Northeast 492 566 35,000  Level Jacksonville Center
Wed 03:12:34 PM 31.5850 -81.5169 44° Northeast 485 558 35,000  Level Jacksonville Center
Wed 03:13:34 PM 31.6736 -81.4181 44° Northeast 485 558 35,000  Level Jacksonville Center
Wed 03:14:34 PM 31.7808 -81.2992 43° Northeast 485 558 35,000  Level Jacksonville Center
Wed 03:15:34 PM 31.8692 -81.1997 44° Northeast 485 558 35,000  Level Jacksonville Center
Wed 03:16:34 PM 31.9803 -81.0778 43° Northeast 492 566 35,000  Level Jacksonville Center
Wed 03:17:34 PM 32.0706 -80.9778 43° Northeast 492 566 35,000  Level Jacksonville Center
Wed 03:18:34 PM 32.1772 -80.8578 44° Northeast 484 557 35,000  Level Jacksonville Center
Wed 03:19:34 PM 32.2758 -80.7475 43° Northeast 482 555 35,000  Level Jacksonville Center
Wed 03:20:34 PM 32.3739 -80.6344 44° Northeast 483 556 35,000  Level Jacksonville Center
Wed 03:21:34 PM 32.4700 -80.5214 45° Northeast 483 556 35,000  Level Jacksonville Center
Wed 03:22:34 PM 32.5681 -80.4128 43° Northeast 478 550 35,000  Level Jacksonville Center
Wed 03:23:34 PM 32.6558 -80.3117 44° Northeast 478 550 35,000  Level Jacksonville Center
Wed 03:24:34 PM 32.7517 -80.2003 44° Northeast 478 550 35,000  Level Jacksonville Center
Wed 03:25:34 PM 32.8494 -80.0886 44° Northeast 478 550 35,000  Level Jacksonville Center
Wed 03:26:34 PM 32.9472 -79.9864 41° Northeast 478 550 35,000  Level Jacksonville Center
Wed 03:27:34 PM 33.0494 -79.8867 39° Northeast 473 544 35,000  Level Jacksonville Center
Wed 03:28:34 PM 33.1514 -79.7889 39° Northeast 473 544 35,000  Level Jacksonville Center
Wed 03:29:34 PM 33.2553 -79.6883 39° Northeast 467 537 35,000  Level Jacksonville Center
Wed 03:30:34 PM 33.3550 -79.5928 39° Northeast 467 537 35,000  Level Jacksonville Center
Wed 03:31:34 PM 33.4567 -79.4919 40° Northeast 467 537 35,000  Level Jacksonville Center
Wed 03:32:34 PM 33.5564 -79.3933 39° Northeast 462 532 35,000  Level Jacksonville Center
Wed 03:33:34 PM 33.6558 -79.2947 40° Northeast 462 532 35,000  Level Jacksonville Center
Wed 03:34:34 PM 33.7611 -79.1906 39° Northeast 456 525 35,000  Level Jacksonville Center
Wed 03:35:34 PM 33.8625 -79.0911 39° Northeast 456 525 35,000  Level Jacksonville Center
Wed 03:37:37 PM 34.0617 -78.8958 39° Northeast 462 532 35,000  Level Washington Center
Wed 03:38:37 PM 34.1475 -78.8089 40° Northeast 457 526 35,000  Level Washington Center
Wed 03:39:36 PM 34.2458 -78.7122 39° Northeast 457 526 35,000  Level Washington Center
Wed 03:40:36 PM 34.3422 -78.6153 40° Northeast 457 526 35,000  Level Washington Center
Wed 03:41:37 PM 34.4386 -78.5181 40° Northeast 452 520 35,000  Level Washington Center
Wed 03:42:35 PM 34.5456 -78.4058 41° Northeast 452 520 35,000  Level Washington Center
Wed 03:43:35 PM 34.6331 -78.3231 38° Northeast 452 520 35,000  Level Washington Center
Wed 03:44:36 PM 34.7292 -78.2253 40° Northeast 452 520 35,000  Level Washington Center
Wed 03:45:37 PM 34.8231 -78.1219 42° Northeast 447 514 35,000  Level Washington Center
Wed 03:46:37 PM 34.9231 -78.0289 37° Northeast 453 521 35,000  Level Washington Center
Wed 03:47:35 PM 35.0292 -77.9458 33° Northeast 453 521 35,000  Level Washington Center
Wed 03:48:35 PM 35.1350 -77.8653 32° Northeast 448 516 35,000  Level Washington Center
Wed 03:49:37 PM 35.2389 -77.7817 33° Northeast 448 516 35,000  Level Washington Center
Wed 03:50:37 PM 35.3425 -77.7028 32° Northeast 443 510 35,000  Level Washington Center
Wed 03:51:35 PM 35.4461 -77.6189 33° Northeast 443 510 35,000  Level Washington Center
Wed 03:52:37 PM 35.5497 -77.5372 33° Northeast 443 510 35,000  Level Washington Center
Wed 03:53:37 PM 35.6533 -77.4556 33° Northeast 443 510 35,000  Level Washington Center
Wed 03:54:36 PM 35.7569 -77.3736 33° Northeast 443 510 35,000  Level Washington Center
Wed 03:55:36 PM 35.8603 -77.2911 33° Northeast 443 510 35,000  Level Washington Center
Wed 03:56:37 PM 35.9617 -77.2086 33° Northeast 443 510 35,000  Level Washington Center
Wed 03:57:37 PM 36.0733 -77.1183 33° Northeast 443 510 35,000  Level Washington Center
Wed 03:58:34 PM 36.1744 -77.0356 33° Northeast 443 510 35,000  Level Washington Center
Wed 03:59:35 PM 36.2778 -76.9522 33° Northeast 443 510 35,000  Level Washington Center
Wed 04:00:36 PM 36.3808 -76.8717 32° Northeast 443 510 35,000  Level Washington Center
Wed 04:01:36 PM 36.4819 -76.7881 34° Northeast 443 510 35,000  Level Washington Center
Wed 04:02:37 PM 36.5806 -76.7094 33° Northeast 438 504 35,000  Level Washington Center
Wed 04:03:37 PM 36.6814 -76.6253 34° Northeast 438 504 35,000  Level Washington Center
Wed 04:04:35 PM 36.7825 -76.5383 35° Northeast 438 504 35,000  Level Washington Center
Wed 04:05:35 PM 36.8831 -76.4539 34° Northeast 438 504 35,000  Level Washington Center
Wed 04:06:36 PM 36.9839 -76.3694 34° Northeast 438 504 35,000  Level Washington Center
Wed 04:07:36 PM 37.0867 -76.2869 33° Northeast 438 504 35,000  Level Washington Center
Wed 04:08:37 PM 37.1850 -76.2044 34° Northeast 433 498 35,000  Level Washington Center
Wed 04:09:35 PM 37.2772 -76.1294 33° Northeast 433 498 35,000  Level Washington Center
Wed 04:10:35 PM 37.3778 -76.0439 34° Northeast 433 498 35,000  Level Washington Center
Wed 04:11:36 PM 37.4781 -75.9608 33° Northeast 433 498 35,000  Level Washington Center
Wed 04:12:37 PM 37.5806 -75.8800 32° Northeast 433 498 35,000  Level Washington Center
Wed 04:13:35 PM 37.6786 -75.7939 35° Northeast 433 498 35,000  Level Washington Center
Wed 04:14:35 PM 37.7789 -75.7047 35° Northeast 438 504 35,000  Level Washington Center
Wed 04:15:35 PM 37.8792 -75.6156 35° Northeast 438 504 35,000  Level Washington Center
Wed 04:16:37 PM 37.9750 -75.5153 40° Northeast 438 504 35,000  Level Washington Center
Wed 04:17:37 PM 38.0708 -75.4178 39° Northeast 438 504 35,000  Level Washington Center
Wed 04:18:35 PM 38.1686 -75.3197 38° Northeast 443 510 35,000  Level Washington Center
Wed 04:19:36 PM 38.2664 -75.2214 38° Northeast 443 510 35,000  Level Washington Center
Wed 04:20:36 PM 38.3597 -75.1178 41° Northeast 443 510 35,000  Level Washington Center
Wed 04:21:37 PM 38.4575 -75.0164 39° Northeast 443 510 35,000  Level Washington Center
Wed 04:22:35 PM 38.5528 -74.9119 41° Northeast 448 516 35,000 155 Level Washington Center
Wed 04:28:42 PM 39.1727 -74.2554 40° Northeast 467 537 36,100 195 Climbing FlightAware ADS-B (KPHL)
Wed 04:29:15 PM 39.2267 -74.1975 40° Northeast 471 542 36,300 455 Climbing FlightAware ADS-B (KPHL)
Wed 04:29:48 PM 39.2542 -74.1679 40° Northeast 474 545 36,600 476 Climbing FlightAware ADS-B (KPHL)
Wed 04:30:18 PM 39.3218 -74.0951 40° Northeast 474 545 36,800 324 Climbing FlightAware ADS-B (KPHL)
Wed 04:31:02 PM 39.3825 -74.0300 40° Northeast 472 543 37,000 113 Climbing Boston Center
Wed 04:32:04 PM 39.5056 -73.8961 40° Northeast 480 552 37,000  Level Boston Center
Wed 04:33:05 PM 39.6061 -73.7883 40° Northeast 479 551 37,000  Level Boston Center
Wed 04:34:05 PM 39.7036 -73.6797 41° Northeast 471 542 37,000  Level Boston Center
Wed 04:35:09 PM 39.8022 -73.5722 40° Northeast 467 537 37,000  Level Boston Center
Wed 04:36:09 PM 39.9028 -73.4628 40° Northeast 467 537 37,000  Level Boston Center
Wed 04:37:10 PM 40.0008 -73.3561 40° Northeast 465 535 37,000  Level Boston Center
Wed 04:38:10 PM 40.0831 -73.2186 52° Northeast 475 547 37,000  Level Boston Center
Wed 04:39:12 PM 40.1639 -73.0792 53° Northeast 479 551 37,000  Level Boston Center
Wed 04:40:12 PM 40.2433 -72.9408 53° Northeast 480 552 37,000  Level Boston Center
Wed 04:41:13 PM 40.3233 -72.8025 53° Northeast 481 554 37,000  Level Boston Center
Wed 04:42:17 PM 40.4194 -72.6383 52° Northeast 478 550 37,000  Level Boston Center
Wed 04:47:17 PM 40.8286 -71.9195 53° Northeast 484 557 37,000  Level FlightAware ADS-B
Wed 04:48:07 PM 40.8945 -71.8026 54° Northeast 484 557 37,000  Level FlightAware ADS-B
Wed 04:49:08 PM 40.9709 -71.6663 54° Northeast 484 557 37,000  Level FlightAware ADS-B
Wed 04:49:45 PM 41.0251 -71.5692 54° Northeast 481 554 37,000  Level FlightAware ADS-B
Wed 04:51:44 PM 41.1816 -71.2870 54° Northeast 481 554 37,000  Level FlightAware ADS-B
Wed 04:52:16 PM 41.2210 -71.2158 53° Northeast 480 552 37,000  Level FlightAware ADS-B
Wed 04:52:49 PM 41.2665 -71.1329 55° Northeast 476 548 37,000  Level FlightAware ADS-B (KASH)
Wed 04:53:20 PM 41.3075 -71.0582 55° Northeast 476 548 37,000  Level FlightAware ADS-B (KASH)
Wed 04:53:37 PM 41.3290 -71.0190 54° Northeast 481 554 37,000  Level FlightAware ADS-B (ESTA / AGH)
Wed 04:54:09 PM 41.3580 -70.9661 54° Northeast 480 552 37,000  Level FlightAware ADS-B
Wed 04:54:27 PM 41.3956 -70.8974 55° Northeast 476 548 37,000  Level FlightAware ADS-B (KASH)
Wed 04:55:09 PM 41.4496 -70.7984 54° Northeast 480 552 37,000  Level FlightAware ADS-B (ESTA / AGH)
Wed 04:56:23 PM 41.5458 -70.6226 54° Northeast 480 552 37,000  Level FlightAware ADS-B (ESTA / AGH)
Wed 04:57:22 PM 41.6221 -70.4807 55° Northeast 481 554 37,000  Level FlightAware ADS-B (ESTA / AGH)
Wed 04:58:23 PM 41.7009 -70.3330 55° Northeast 480 552 37,000  Level FlightAware ADS-B (ESTA / AGH)
Wed 04:59:25 PM 41.7809 -70.1834 55° Northeast 480 552 37,000  Level FlightAware ADS-B (ESTA / AGH)
Wed 05:00:24 PM 41.8574 -70.0399 55° Northeast 480 552 37,000  Level FlightAware ADS-B (ESTA / AGH)
Wed 05:01:25 PM 41.9357 -69.8922 55° Northeast 482 555 37,000  Level FlightAware ADS-B (ESTA / AGH)
Wed 05:02:02 PM 41.9826 -69.8029 55° Northeast 482 555 37,000  Level FlightAware ADS-B (KASH)
Wed 05:02:33 PM 42.0193 -69.7330 55° Northeast 483 556 37,000  Level FlightAware ADS-B (ESTA / AGH)
Wed 05:03:32 PM 42.0982 -69.5822 55° Northeast 484 557 37,000  Level FlightAware ADS-B
Wed 05:04:12 PM 42.1494 -69.4836 55° Northeast 485 558 37,000  Level FlightAware ADS-B
Wed 05:05:17 PM 42.2330 -69.3235 55° Northeast 484 557 37,000  Level FlightAware ADS-B
Wed 05:05:56 PM 42.2806 -69.2312 55° Northeast 483 556 37,000  Level FlightAware ADS-B
Wed 05:06:37 PM 42.3349 -69.1256 55° Northeast 481 554 37,000  Level FlightAware ADS-B
Wed 05:08:31 PM 42.4790 -68.8442 55° Northeast 477 549 37,000  Level FlightAware ADS-B (KASH)
Wed 05:11:54 PM 42.7310 -68.3467 56° Northeast 476 548 37,000  Level FlightAware ADS-B (EGHI / SOU)
Wed 05:12:30 PM 42.7751 -68.2590 56° Northeast 476 548 37,000  Level FlightAware ADS-B (EGHI / SOU)
Wed 05:14:36 PM 42.9300 -67.9469 56° Northeast 478 550 37,000  Level FlightAware ADS-B (EGHI / SOU)
Wed 05:15:15 PM 42.9784 -67.8485 56° Northeast 481 554 37,000  Level FlightAware ADS-B (EGHI / SOU)
Wed 05:15:57 PM 43.0298 -67.7450 56° Northeast 483 556 37,000  Level FlightAware ADS-B (EGHI / SOU)
Wed 05:16:27 PM 43.0564 -67.6910 56° Northeast 483 556 37,000  Level FlightAware ADS-B (EGHI / SOU)
Wed 05:17:14 PM 43.1221 -67.5572 56° Northeast 484 557 37,000  Level FlightAware ADS-B (EGHI / SOU)
Wed 05:18:05 PM 43.1896 -67.4180 56° Northeast 485 558 37,000  Level FlightAware ADS-B (EGHI / SOU)
Wed 05:18:46 PM 43.2381 -67.3185 56° Northeast 485 558 37,000  Level FlightAware ADS-B (EGHI / SOU)
Wed 05:19:18 PM 43.2802 -67.2316 57° Northeast 486 559 37,000  Level FlightAware ADS-B (EGHI / SOU)
Wed 05:19:48 PM 43.3159 -67.1572 57° Northeast 485 558 37,000  Level FlightAware ADS-B (EGHI / SOU)
Wed 05:20:26 PM 43.3601 -67.0655 57° Northeast 485 558 37,000  Level FlightAware ADS-B (EGHI / SOU)
Wed 05:20:58 PM 43.4034 -66.9751 57° Northeast 484 557 37,000  Level FlightAware ADS-B (EGHI / SOU)
Wed 05:21:37 PM 43.4520 -66.8735 57° Northeast 484 557 37,000  Level FlightAware ADS-B (EGHI / SOU)
Wed 05:22:21 PM 43.4980 -66.7771 57° Northeast 483 556 37,000  Level FlightAware ADS-B (EGHI / SOU)
Wed 05:22:54 PM 43.5423 -66.6843 57° Northeast 482 555 37,000  Level FlightAware ADS-B (EGHI / SOU)
Wed 05:23:50 PM 43.6129 -66.5348 57° Northeast 481 554 37,000  Level FlightAware ADS-B (EGHI / SOU)
Wed 05:25:11 PM 43.7071 -66.3345 57° Northeast 480 552 37,000  Level FlightAware ADS-B (EGHI / SOU)
Wed 05:25:44 PM 43.7505 -66.2420 57° Northeast 480 552 37,000  Level FlightAware ADS-B (EGHI / SOU)
Wed 05:26:24 PM 43.7997 -66.1371 57° Northeast 480 552 37,000  Level FlightAware ADS-B (EGHI / SOU)
Wed 05:27:05 PM 43.8477 -66.0304 59° Northeast 481 554 37,000  Level FlightAware ADS-B (EGHI / SOU)
Wed 05:27:35 PM 43.8809 -65.9528 60° Northeast 476 548 37,000 -1,613 Level FlightAware ADS-B (EGHI / SOU)
Wed 05:28:38 PM 43.9497 -65.7906 60° Northeast 472 543 34,500 -2,400 Descending FlightAware ADS-B (EGHI / SOU)
Wed 05:29:15 PM 43.9906 -65.6939 60° Northeast 468 539 33,000 -2,294 Descending FlightAware ADS-B (EGHI / SOU)
Wed 05:29:46 PM 44.0249 -65.6137 60° Northeast 460 529 31,900 -2,066 Descending FlightAware ADS-B (EGHI / SOU)
Wed 05:30:16 PM 44.0539 -65.5444 60° Northeast 452 520 30,900 -2,143 Descending FlightAware ADS-B (EGHI / SOU)
Wed 05:30:56 PM 44.0926 -65.4518 60° Northeast 439 505 29,400 -2,462 Descending FlightAware ADS-B (EGHI / SOU)
Wed 05:31:34 PM 44.1357 -65.3490 60° Northeast 436 502 27,700 -2,783 Descending FlightAware ADS-B (EGHI / SOU)
Wed 05:32:05 PM 44.1671 -65.2738 60° Northeast 433 498 26,200 -3,000 Descending FlightAware ADS-B (EGHI / SOU)
Wed 05:32:44 PM 44.2061 -65.1809 60° Northeast 434 499 24,200 -2,963 Descending FlightAware ADS-B (EGHI / SOU)
Wed 05:33:26 PM 44.2466 -65.0834 60° Northeast 428 493 22,200 -2,519 Descending FlightAware ADS-B (EGHI / SOU)
Wed 05:34:05 PM 44.2865 -64.9866 60° Northeast 414 476 20,800 -2,211 Descending FlightAware ADS-B (EGHI / SOU)
Wed 05:34:42 PM 44.3190 -64.9016 66° East 405 466 19,400 -2,154 Descending FlightAware ADS-B (EGHI / SOU)
Wed 05:35:23 PM 44.3501 -64.8055 66° East 394 453 18,000 -2,188 Descending FlightAware ADS-B (EGHI / SOU)
Wed 05:36:07 PM 44.3760 -64.7251 66° East 385 443 16,300 -2,240 Descending FlightAware ADS-B (EGHI / SOU)
Wed 05:36:38 PM 44.4051 -64.6350 66° East 379 436 15,200 -2,091 Descending FlightAware ADS-B (EGHI / SOU)
Wed 05:37:13 PM 44.4302 -64.5575 66° East 376 433 14,000 -2,400 Descending FlightAware ADS-B (EGHI / SOU)
Wed 05:38:03 PM 44.4500 -64.4500 66° East 360 414 11,800 -1,418 Descending Moncton Center
Wed 05:39:03 PM 44.4833 -64.3333 68° East 330 380 11,400 -750 Descending Moncton Center
Wed 05:40:03 PM 44.5167 -64.2333 65° Northeast 290 334 10,300 -1,100 Descending Moncton Center
Wed 05:41:03 PM 44.5500 -64.1333 65° Northeast 270 311 9,200 -1,050 Descending Moncton Center
Wed 05:42:03 PM 44.5667 -64.0500 74° East 260 299 8,200 -900 Descending Moncton Center
Wed 05:43:03 PM 44.6000 -63.9500 65° Northeast 250 288 7,400 -950 Descending Moncton Center
Wed 05:44:03 PM 44.6333 -63.8833 55° Northeast 240 276 6,300 -1,000 Descending Moncton Center
Wed 05:45:03 PM 44.6500 -63.7833 77° East 230 265 5,400 -650 Descending Moncton Center
Wed 05:46:03 PM 44.6833 -63.7167 55° Northeast 210 242 5,000 -750 Descending Moncton Center
Wed 05:47:03 PM 44.7167 -63.6500 55° Northeast 180 207 3,900 -900 Descending Moncton Center
Wed 05:48:03 PM 44.7333 -63.6167 55° Northeast 140 161 3,200 -700 Descending Moncton Center
Wed 05:49:03 PM 44.7667 -63.6000 20° North 110 127 2,500 -600 Descending Moncton Center
Wed 05:50:03 PM 44.7833 -63.5667 55° Northeast 100 115 2,000 -550 Descending Moncton Center
Wed 05:51:03 PM 44.8167 -63.5500 20° North 110 127 1,400 -450 Descending Moncton Center
Wed 05:52:03 PM 44.8500 -63.5167 35° Northeast 120 138 1,100 800 Descending Moncton Center
Wed 05:53:03 PM 44.8667 -63.5000 35° Northeast 140 161 3,000 950 Climbing Moncton Center
Wed 05:54:03 PM 44.9167 -63.4500 35° Northeast 170 196 3,000  Level Moncton Center
Wed 05:55:03 PM 44.9500 -63.5000 313° West 260 299 3,000  Level Moncton Center
Wed 05:56:03 PM 44.9000 -63.6000 235° Southwest 290 334 3,000  Level Moncton Center
Wed 05:57:03 PM 44.8333 -63.6833 222° Southwest 300 345 3,000 -50 Level Moncton Center
Wed 05:58:03 PM 44.7833 -63.7667 230° Southwest 280 322 2,900 -300 Descending Moncton Center
Wed 05:59:03 PM 44.7333 -63.7167 145° Southeast 190 219 2,400 -400 Descending Moncton Center
Wed 06:00:03 PM 44.7333 -63.6500 90° East 140 161 2,100 -100 Descending Moncton Center
Wed 06:01:03 PM 44.7500 -63.6167 55° Northeast 120 138 2,200  Climbing Moncton Center
Wed 06:02:03 PM 44.7833 -63.6000 20° North 120 138 2,100 -250 Descending Moncton Center
Wed 06:03:03 PM 44.8000 -63.5500 65° Northeast 120 138 1,700 -550 Descending Moncton Center
Wed 06:04:03 PM 44.8333 -63.5167 35° Northeast 120 138 1,000 -600 Descending Moncton Center
Wed 06:05:03 PM 44.8500 -63.5000 35° Northeast 130 150 500 -500 Descending Moncton Center

Login

Don't have an account? Register now (free) for customized features, flight alerts, and more!